createdAt,value
2019-05-21T00:00:56.947Z,11.60
2019-05-21T00:03:26.877Z,11.60
2019-05-21T00:05:56.747Z,11.50
2019-05-21T00:08:26.706Z,11.60
2019-05-21T00:10:56.557Z,11.50
2019-05-21T00:13:26.490Z,11.50
2019-05-21T00:15:56.361Z,11.50
2019-05-21T00:18:26.580Z,11.50
2019-05-21T00:20:56.488Z,11.50
2019-05-21T00:23:26.465Z,11.50
2019-05-21T00:25:56.323Z,11.50
2019-05-21T00:28:39.957Z,11.50
2019-05-21T00:31:46.068Z,11.50
2019-05-21T00:34:52.089Z,11.50
2019-05-21T00:37:57.891Z,11.70
2019-05-21T00:41:03.826Z,11.60
2019-05-21T00:43:52.225Z,11.60
2019-05-21T00:46:22.194Z,11.50
2019-05-21T00:48:52.189Z,11.40
2019-05-21T00:51:22.209Z,11.50
2019-05-21T00:53:52.138Z,11.50
2019-05-21T00:56:22.128Z,11.50
2019-05-21T00:58:52.176Z,11.50
2019-05-21T01:01:22.110Z,11.50
2019-05-21T01:03:52.030Z,11.50
2019-05-21T01:06:21.970Z,11.50
2019-05-21T01:08:51.941Z,11.40
2019-05-21T01:11:21.886Z,11.40
2019-05-21T01:13:51.881Z,11.40
2019-05-21T01:16:21.880Z,11.40
2019-05-21T01:18:51.880Z,11.40
2019-05-21T01:21:22.290Z,11.40
2019-05-21T01:23:52.819Z,11.40
2019-05-21T01:26:22.766Z,11.40
2019-05-21T01:28:52.701Z,11.40
2019-05-21T01:31:22.732Z,11.40
2019-05-21T01:33:52.662Z,11.40
2019-05-21T01:36:22.614Z,11.40
2019-05-21T01:38:52.774Z,11.40
2019-05-21T01:41:22.679Z,11.40
2019-05-21T01:43:52.856Z,11.40
2019-05-21T01:46:22.921Z,11.40
2019-05-21T01:48:52.867Z,11.40
2019-05-21T01:51:22.856Z,11.40
2019-05-21T01:53:52.825Z,11.40
2019-05-21T01:56:22.689Z,11.40
2019-05-21T01:58:52.603Z,11.40
2019-05-21T02:01:22.521Z,11.40
2019-05-21T02:03:52.395Z,11.30
2019-05-21T02:06:22.957Z,11.30
2019-05-21T02:08:52.911Z,11.30
2019-05-21T02:11:22.889Z,11.20
2019-05-21T02:13:52.836Z,11.20
2019-05-21T02:16:22.776Z,11.20
2019-05-21T02:18:52.654Z,11.20
2019-05-21T02:21:22.651Z,11.10
2019-05-21T02:23:52.576Z,11.20
2019-05-21T02:26:22.518Z,11.20
2019-05-21T02:28:52.509Z,11.10
2019-05-21T02:31:22.494Z,11.10
2019-05-21T02:33:52.413Z,11.10
2019-05-21T02:36:22.442Z,11.10
2019-05-21T02:38:52.645Z,11.10
2019-05-21T02:41:22.539Z,11.00
2019-05-21T02:43:52.451Z,11.00
2019-05-21T02:46:22.695Z,11.10
2019-05-21T02:48:52.609Z,11.00
2019-05-21T02:51:22.550Z,11.00
2019-05-21T02:53:52.483Z,11.00
2019-05-21T02:56:22.431Z,10.90
2019-05-21T02:58:52.389Z,11.00
2019-05-21T03:01:30.486Z,11.40
2019-05-21T03:04:00.435Z,11.00
2019-05-21T03:06:30.387Z,11.00
2019-05-21T03:09:00.310Z,10.90
2019-05-21T03:11:30.261Z,10.90
2019-05-21T03:14:00.681Z,10.90
2019-05-21T03:16:30.633Z,10.80
2019-05-21T03:19:00.594Z,10.80
2019-05-21T03:21:30.564Z,10.80
2019-05-21T03:24:00.460Z,10.80
2019-05-21T03:26:30.410Z,10.80
2019-05-21T03:29:00.286Z,10.80
2019-05-21T03:31:30.213Z,10.80
2019-05-21T03:34:00.352Z,10.70
2019-05-21T03:36:33.932Z,10.70
2019-05-21T03:39:01.854Z,10.70
2019-05-21T03:41:31.783Z,10.70
2019-05-21T03:44:01.688Z,10.70
2019-05-21T03:46:32.049Z,10.70
2019-05-21T03:49:02.070Z,10.70
2019-05-21T03:51:32.034Z,10.70
2019-05-21T03:54:01.968Z,10.60
2019-05-21T03:56:31.918Z,10.70
2019-05-21T03:59:01.828Z,10.70
2019-05-21T04:01:31.687Z,10.70
2019-05-21T04:04:01.610Z,10.60
2019-05-21T04:06:31.558Z,10.60
2019-05-21T04:09:01.419Z,10.60
2019-05-21T04:11:31.383Z,10.60
2019-05-21T04:14:01.666Z,10.60
2019-05-21T04:16:38.214Z,10.60
2019-05-21T04:19:27.073Z,10.60
2019-05-21T04:21:56.939Z,10.60
2019-05-21T04:24:27.185Z,10.60
2019-05-21T04:26:57.067Z,10.60
2019-05-21T04:29:26.986Z,10.60
2019-05-21T04:31:56.927Z,10.50
2019-05-21T04:34:26.858Z,10.60
2019-05-21T04:37:10.037Z,10.60
2019-05-21T04:39:28.353Z,10.50
2019-05-21T04:41:58.664Z,10.50
2019-05-21T04:44:28.606Z,10.50
2019-05-21T04:46:58.590Z,10.50
2019-05-21T04:49:28.518Z,10.50
2019-05-21T04:51:58.484Z,10.50
2019-05-21T04:54:28.435Z,10.50
2019-05-21T04:56:58.443Z,10.50
2019-05-21T04:59:28.372Z,10.50
2019-05-21T05:01:58.319Z,10.50
2019-05-21T05:04:28.590Z,10.50
2019-05-21T05:06:58.470Z,10.50
2019-05-21T05:09:28.382Z,10.50
2019-05-21T05:11:58.316Z,10.50
2019-05-21T05:14:28.267Z,10.50
2019-05-21T05:16:58.205Z,10.50
2019-05-21T05:19:28.218Z,10.50
2019-05-21T05:21:58.149Z,10.50
2019-05-21T05:24:28.108Z,10.50
2019-05-21T05:26:58.005Z,10.50
2019-05-21T05:29:28.040Z,10.50
2019-05-21T05:31:57.991Z,10.50
2019-05-21T05:34:27.930Z,10.60
2019-05-21T05:36:58.128Z,10.50
2019-05-21T05:39:28.505Z,10.50
2019-05-21T05:41:58.517Z,10.50
2019-05-21T05:44:28.807Z,10.50
2019-05-21T05:46:58.721Z,10.50
2019-05-21T05:49:33.873Z,10.50
2019-05-21T05:52:03.867Z,10.50
2019-05-21T05:54:33.787Z,10.50
2019-05-21T05:57:03.776Z,10.50
2019-05-21T05:59:33.760Z,10.50
2019-05-21T06:02:04.036Z,10.50
2019-05-21T06:04:34.027Z,10.60
2019-05-21T06:07:03.896Z,10.60
2019-05-21T06:09:33.831Z,10.60
2019-05-21T06:12:03.803Z,10.50
2019-05-21T06:14:33.740Z,10.50
2019-05-21T06:17:03.679Z,10.60
2019-05-21T06:19:33.725Z,10.50
2019-05-21T06:22:03.638Z,10.60
2019-05-21T06:24:33.625Z,10.60
2019-05-21T06:27:03.594Z,10.60
2019-05-21T06:29:33.837Z,10.70
2019-05-21T06:32:03.772Z,10.70
2019-05-21T06:34:33.895Z,10.70
2019-05-21T06:37:03.955Z,10.70
2019-05-21T06:39:33.910Z,10.70
2019-05-21T06:42:03.852Z,10.70
2019-05-21T06:44:33.794Z,10.70
2019-05-21T06:47:03.933Z,10.70
2019-05-21T06:49:34.125Z,10.60
2019-05-21T06:52:03.967Z,10.60
2019-05-21T06:54:34.228Z,10.70
2019-05-21T06:57:04.170Z,10.70
2019-05-21T06:59:34.129Z,10.60
2019-05-21T07:02:04.370Z,10.20
2019-05-21T07:04:34.312Z,10.50
2019-05-21T07:07:04.231Z,10.50
2019-05-21T07:09:34.179Z,10.40
2019-05-21T07:12:04.110Z,10.50
2019-05-21T07:14:34.047Z,10.50
2019-05-21T07:17:04.172Z,10.50
2019-05-21T07:19:34.093Z,10.50
2019-05-21T07:22:12.606Z,10.50
2019-05-21T07:24:36.200Z,10.50
2019-05-21T07:27:06.235Z,10.50
2019-05-21T07:29:36.209Z,10.50
2019-05-21T07:32:06.146Z,10.50
2019-05-21T07:34:36.436Z,10.40
2019-05-21T07:37:06.651Z,10.40
2019-05-21T07:39:36.595Z,10.40
2019-05-21T07:42:06.518Z,10.40
2019-05-21T07:44:36.814Z,10.40
2019-05-21T07:47:06.709Z,10.40
2019-05-21T07:49:36.592Z,10.40
2019-05-21T07:52:06.560Z,10.40
2019-05-21T07:54:36.820Z,10.40
2019-05-21T07:57:06.762Z,10.40
2019-05-21T07:59:36.709Z,10.50
2019-05-21T08:02:06.621Z,10.50
2019-05-21T08:04:36.488Z,10.40
2019-05-21T08:07:06.431Z,10.50
2019-05-21T08:09:36.370Z,10.50
2019-05-21T08:12:22.816Z,10.50
2019-05-21T08:14:37.853Z,10.50
2019-05-21T08:17:07.792Z,10.40
2019-05-21T08:19:37.737Z,10.40
2019-05-21T08:22:07.984Z,10.40
2019-05-21T08:24:37.938Z,10.50
2019-05-21T08:27:07.850Z,10.40
2019-05-21T08:29:38.095Z,10.40
2019-05-21T08:32:08.015Z,10.40
2019-05-21T08:34:38.010Z,10.50
2019-05-21T08:37:07.881Z,10.50
2019-05-21T08:39:37.751Z,10.50
2019-05-21T08:42:07.658Z,10.50
2019-05-21T08:44:37.606Z,10.50
2019-05-21T08:47:07.611Z,10.50
2019-05-21T08:49:37.666Z,10.60
2019-05-21T08:52:07.587Z,10.50
2019-05-21T08:54:56.160Z,10.60
2019-05-21T08:57:24.211Z,10.60
2019-05-21T08:59:54.175Z,10.50
2019-05-21T09:02:24.960Z,10.60
2019-05-21T09:04:54.890Z,10.60
2019-05-21T09:07:25.015Z,10.60
2019-05-21T09:09:54.959Z,10.60
2019-05-21T09:12:24.875Z,10.70
2019-05-21T09:14:54.820Z,10.90
2019-05-21T09:17:24.766Z,10.80
2019-05-21T09:19:54.737Z,10.80
2019-05-21T09:22:24.579Z,10.80
2019-05-21T09:24:54.518Z,10.90
2019-05-21T09:27:24.383Z,10.90
2019-05-21T09:29:54.588Z,10.90
2019-05-21T09:32:24.502Z,11.00
2019-05-21T09:34:54.366Z,11.00
2019-05-21T09:37:24.303Z,11.00
2019-05-21T09:39:54.397Z,11.10
2019-05-21T09:42:24.471Z,11.20
2019-05-21T09:44:54.444Z,11.20
2019-05-21T09:47:24.391Z,11.20
2019-05-21T09:49:54.789Z,11.30
2019-05-21T09:52:24.969Z,11.30
2019-05-21T09:54:54.926Z,11.30
2019-05-21T09:57:31.753Z,11.30
2019-05-21T10:00:07.353Z,11.20
2019-05-21T10:02:37.202Z,11.30
2019-05-21T10:05:07.365Z,11.40
2019-05-21T10:07:40.238Z,11.30
2019-05-21T10:10:09.710Z,11.40
2019-05-21T10:12:39.634Z,11.40
2019-05-21T10:15:10.090Z,11.40
2019-05-21T10:17:40.078Z,11.40
2019-05-21T10:20:10.309Z,11.60
2019-05-21T10:22:40.443Z,11.60
2019-05-21T10:25:10.798Z,11.50
2019-05-21T10:27:40.731Z,11.50
2019-05-21T10:30:11.281Z,11.60
2019-05-21T10:32:41.222Z,11.50
2019-05-21T10:35:11.457Z,11.50
2019-05-21T10:37:53.924Z,11.40
2019-05-21T10:40:13.592Z,11.50
2019-05-21T10:42:43.533Z,11.60
2019-05-21T10:45:13.897Z,11.60
2019-05-21T10:47:43.781Z,11.80
2019-05-21T10:50:13.727Z,11.80
2019-05-21T10:52:43.995Z,11.80
2019-05-21T10:55:16.150Z,11.90
2019-05-21T10:57:46.297Z,11.80
2019-05-21T11:00:23.136Z,11.80
2019-05-21T11:02:57.239Z,11.80
2019-05-21T11:05:32.211Z,11.80
2019-05-21T11:08:22.815Z,11.90
2019-05-21T11:10:33.690Z,11.90
2019-05-21T11:13:03.978Z,11.40
2019-05-21T11:15:33.900Z,12.00
2019-05-21T11:18:12.055Z,12.00
2019-05-21T11:20:35.604Z,12.20
2019-05-21T11:23:05.902Z,12.10
2019-05-21T11:25:35.831Z,12.10
2019-05-21T11:28:06.323Z,12.00
2019-05-21T11:30:36.492Z,12.10
2019-05-21T11:33:06.700Z,11.80
2019-05-21T11:35:36.867Z,11.90
2019-05-21T11:38:06.800Z,11.90
2019-05-21T11:40:36.935Z,11.90
2019-05-21T11:43:06.854Z,12.10
2019-05-21T11:45:36.854Z,11.90
2019-05-21T11:48:06.758Z,11.90
2019-05-21T11:50:36.657Z,11.90
2019-05-21T11:53:06.554Z,11.80
2019-05-21T11:55:36.478Z,11.80
2019-05-21T11:58:06.790Z,11.80
2019-05-21T12:00:36.985Z,11.80
2019-05-21T12:03:06.938Z,11.70
2019-05-21T12:05:36.906Z,11.80
2019-05-21T12:08:06.857Z,11.90
2019-05-21T12:10:36.814Z,11.90
2019-05-21T12:13:06.755Z,12.20
2019-05-21T12:15:36.685Z,12.00
2019-05-21T12:18:06.614Z,12.00
2019-05-21T12:20:37.577Z,12.00
2019-05-21T12:23:07.740Z,12.00
2019-05-21T12:25:37.911Z,11.90
2019-05-21T12:28:11.327Z,11.90
2019-05-21T12:30:40.835Z,11.90
2019-05-21T12:33:10.778Z,11.80
2019-05-21T12:35:40.708Z,11.70
2019-05-21T12:38:10.628Z,11.60
2019-05-21T12:40:40.550Z,11.50
2019-05-21T12:43:10.492Z,11.50
2019-05-21T12:45:40.739Z,11.50
2019-05-21T12:48:11.368Z,11.50
2019-05-21T12:50:41.329Z,11.50
2019-05-21T12:53:11.246Z,11.50
2019-05-21T12:55:41.165Z,11.50
2019-05-21T12:58:11.017Z,11.50
2019-05-21T13:00:42.550Z,11.50
2019-05-21T13:03:12.951Z,11.50
2019-05-21T13:05:42.912Z,11.50
2019-05-21T13:08:12.860Z,11.50
2019-05-21T13:10:42.814Z,11.50
2019-05-21T13:13:12.845Z,11.50
2019-05-21T13:15:42.796Z,11.50
2019-05-21T13:18:12.833Z,11.50
2019-05-21T13:20:42.803Z,11.50
2019-05-21T13:23:12.735Z,11.50
2019-05-21T13:25:42.619Z,11.40
2019-05-21T13:28:12.550Z,11.40
2019-05-21T13:30:42.753Z,11.40
2019-05-21T13:33:12.597Z,11.30
2019-05-21T13:35:42.506Z,11.30
2019-05-21T13:38:13.604Z,11.30
2019-05-21T13:40:44.225Z,11.30
2019-05-21T13:43:14.102Z,11.20
2019-05-21T13:45:44.093Z,11.30
2019-05-21T13:48:14.316Z,11.20
2019-05-21T13:50:44.527Z,11.30
2019-05-21T13:53:14.507Z,11.20
2019-05-21T13:55:44.976Z,11.20
2019-05-21T13:58:14.890Z,11.20
2019-05-21T14:00:49.154Z,11.20
2019-05-21T14:03:19.072Z,11.20
2019-05-21T14:05:49.018Z,11.20
2019-05-21T14:08:18.927Z,11.20
2019-05-21T14:10:48.881Z,11.10
2019-05-21T14:13:18.794Z,11.10
2019-05-21T14:15:48.901Z,11.10
2019-05-21T14:18:18.782Z,11.10
2019-05-21T14:20:48.704Z,11.10
2019-05-21T14:23:18.618Z,11.10
2019-05-21T14:25:48.553Z,11.10
2019-05-21T14:28:18.835Z,11.10
2019-05-21T14:30:48.802Z,11.10
2019-05-21T14:33:18.747Z,11.10
2019-05-21T14:35:48.928Z,11.10
2019-05-21T14:38:18.855Z,11.00
2019-05-21T14:40:48.793Z,11.00
2019-05-21T14:43:18.749Z,11.00
2019-05-21T14:45:48.741Z,10.90
2019-05-21T14:48:18.771Z,11.00
2019-05-21T14:50:48.634Z,11.00
2019-05-21T14:53:18.595Z,11.00
2019-05-21T14:55:48.525Z,11.00
2019-05-21T14:58:18.415Z,11.00
2019-05-21T15:00:48.338Z,11.00
2019-05-21T15:03:25.190Z,11.00
2019-05-21T15:05:49.860Z,10.90
2019-05-21T15:08:19.843Z,11.00
2019-05-21T15:10:49.916Z,11.00
2019-05-21T15:13:20.148Z,11.00
2019-05-21T15:15:50.182Z,13.00
2019-05-21T15:18:22.299Z,10.90
2019-05-21T15:20:56.801Z,10.90
2019-05-21T15:23:26.746Z,10.90
2019-05-21T15:25:56.670Z,10.90
2019-05-21T15:28:26.750Z,11.00
2019-05-21T15:30:56.767Z,10.90
2019-05-21T15:33:26.773Z,10.90
2019-05-21T15:35:56.763Z,11.00
2019-05-21T15:38:26.710Z,10.90
2019-05-21T15:41:09.429Z,10.90
2019-05-21T15:43:28.586Z,10.90
2019-05-21T15:45:58.589Z,10.90
2019-05-21T15:48:28.584Z,10.90
2019-05-21T15:50:58.526Z,10.80
2019-05-21T15:53:28.477Z,10.80
2019-05-21T15:55:58.338Z,10.80
2019-05-21T15:58:28.330Z,10.80
2019-05-21T16:00:58.209Z,10.80
2019-05-21T16:03:28.482Z,10.70
2019-05-21T16:05:58.837Z,11.20
2019-05-21T16:08:28.952Z,10.80
2019-05-21T16:10:58.905Z,10.70
2019-05-21T16:13:28.952Z,10.70
2019-05-21T16:15:58.867Z,10.80
2019-05-21T16:18:28.828Z,10.70
2019-05-21T16:20:58.736Z,10.90
2019-05-21T16:23:28.881Z,10.70
2019-05-21T16:25:58.763Z,10.70
2019-05-21T16:28:28.735Z,10.70
2019-05-21T16:30:58.721Z,10.60
2019-05-21T16:33:28.908Z,10.70
2019-05-21T16:35:58.941Z,10.70
2019-05-21T16:38:30.029Z,10.60
2019-05-21T16:41:00.089Z,10.70
2019-05-21T16:43:30.526Z,10.60
2019-05-21T16:46:00.465Z,10.70
2019-05-21T16:48:30.860Z,10.60
2019-05-21T16:51:00.762Z,10.60
2019-05-21T16:53:30.721Z,10.70
2019-05-21T16:56:00.600Z,10.70
2019-05-21T16:58:30.526Z,10.70
2019-05-21T17:01:00.962Z,10.70
2019-05-21T17:03:30.901Z,10.80
2019-05-21T17:06:00.825Z,10.70
2019-05-21T17:08:30.776Z,10.70
2019-05-21T17:11:00.677Z,10.70
2019-05-21T17:13:30.606Z,10.90
2019-05-21T17:16:00.882Z,10.70
2019-05-21T17:18:30.850Z,10.80
2019-05-21T17:21:00.745Z,10.80
2019-05-21T17:23:30.687Z,10.80
2019-05-21T17:26:00.631Z,10.80
2019-05-21T17:28:30.582Z,10.70
2019-05-21T17:31:00.522Z,10.70
2019-05-21T17:33:30.547Z,10.70
2019-05-21T17:36:00.540Z,10.80
2019-05-21T17:38:30.711Z,10.70
2019-05-21T17:41:01.027Z,10.80
2019-05-21T17:43:30.970Z,10.80
2019-05-21T17:46:00.954Z,10.80
2019-05-21T17:48:31.205Z,10.80
2019-05-21T17:51:01.155Z,10.80
2019-05-21T17:53:31.346Z,10.80
2019-05-21T17:56:01.324Z,10.80
2019-05-21T17:58:31.277Z,10.80
2019-05-21T18:01:03.362Z,10.80
2019-05-21T18:03:33.579Z,10.80
2019-05-21T18:06:03.936Z,10.80
2019-05-21T18:08:34.182Z,10.80
2019-05-21T18:11:04.517Z,10.80
2019-05-21T18:13:34.826Z,10.80
2019-05-21T18:16:06.004Z,10.90
2019-05-21T18:18:36.434Z,10.70
2019-05-21T18:21:07.810Z,10.90
2019-05-21T18:23:37.719Z,10.80
2019-05-21T18:26:07.696Z,10.80
2019-05-21T18:28:38.021Z,10.90
2019-05-21T18:31:08.153Z,10.90
2019-05-21T18:33:38.005Z,10.80
2019-05-21T18:36:08.153Z,10.80
2019-05-21T18:38:38.274Z,10.70
2019-05-21T18:41:08.238Z,10.80
2019-05-21T18:43:38.539Z,10.80
2019-05-21T18:46:08.661Z,10.80
2019-05-21T18:48:40.430Z,10.80
2019-05-21T18:51:10.396Z,10.80
2019-05-21T18:53:40.537Z,10.80
2019-05-21T18:56:11.169Z,10.70
2019-05-21T18:58:41.423Z,10.70
2019-05-21T19:01:11.759Z,10.80
2019-05-21T19:03:41.670Z,10.80
2019-05-21T19:06:11.617Z,10.80
2019-05-21T19:08:41.571Z,10.80
2019-05-21T19:11:11.625Z,10.80
2019-05-21T19:13:41.475Z,10.80
2019-05-21T19:16:11.434Z,10.80
2019-05-21T19:21:10.609Z,10.70
2019-05-21T19:26:09.789Z,10.80
2019-05-21T19:31:08.952Z,10.80
2019-05-21T19:33:38.911Z,10.80
2019-05-21T19:36:08.982Z,10.80
2019-05-21T19:38:38.939Z,10.80
2019-05-21T19:41:09.006Z,10.80
2019-05-21T19:43:38.923Z,10.70
2019-05-21T19:46:08.971Z,10.80
2019-05-21T19:53:37.283Z,10.80
2019-05-21T19:56:07.607Z,10.70
2019-05-21T20:01:07.916Z,10.80
2019-05-21T20:03:38.426Z,10.80
2019-05-21T20:06:08.598Z,10.60
2019-05-21T20:13:37.653Z,10.80
2019-05-21T20:16:08.091Z,10.70
2019-05-21T20:18:38.219Z,10.70
2019-05-21T20:21:09.012Z,10.70
2019-05-21T20:28:41.076Z,10.70
2019-05-21T20:31:11.147Z,10.80
2019-05-21T20:33:41.679Z,10.80
2019-05-21T20:36:11.628Z,10.80
2019-05-21T20:43:40.657Z,10.90
2019-05-21T20:46:10.878Z,10.70
2019-05-21T20:48:41.206Z,10.60
2019-05-21T20:51:12.059Z,10.70
2019-05-21T20:53:41.998Z,10.70
2019-05-21T20:56:11.937Z,10.70
2019-05-21T21:01:11.250Z,10.70
2019-05-21T21:03:42.977Z,10.70
2019-05-21T21:06:12.863Z,10.60
2019-05-21T21:08:42.781Z,10.60
2019-05-21T21:16:13.852Z,10.60
2019-05-21T21:18:43.902Z,10.60
2019-05-21T21:21:14.029Z,10.70
2019-05-21T21:23:44.897Z,10.60
2019-05-21T21:28:44.960Z,10.70
2019-05-21T21:31:14.817Z,10.60
2019-05-21T21:33:45.058Z,10.80
2019-05-21T21:36:15.115Z,10.50
2019-05-21T21:38:45.116Z,10.60
2019-05-21T21:41:14.987Z,10.50
2019-05-21T21:43:44.953Z,10.50
2019-05-21T21:46:14.913Z,10.70
2019-05-21T21:51:17.629Z,10.60
2019-05-21T21:53:48.303Z,10.50
2019-05-21T21:56:18.552Z,10.60
2019-05-21T21:58:48.514Z,10.70
2019-05-21T22:01:49.100Z,10.60
2019-05-21T22:04:24.004Z,10.60
2019-05-21T22:06:54.300Z,10.50
2019-05-21T22:09:31.146Z,10.50
2019-05-21T22:12:03.559Z,10.50
2019-05-21T22:14:49.203Z,10.50
2019-05-21T22:17:07.767Z,10.50
2019-05-21T22:19:38.278Z,10.50
2019-05-21T22:22:09.999Z,10.50
2019-05-21T22:24:40.777Z,10.50
2019-05-21T22:27:10.940Z,10.50
2019-05-21T22:29:40.886Z,10.50
2019-05-21T22:32:10.841Z,10.60
2019-05-21T22:34:40.775Z,10.50
2019-05-21T22:37:14.934Z,10.60
2019-05-21T22:39:47.782Z,10.50
2019-05-21T22:42:17.726Z,10.50
2019-05-21T22:44:47.904Z,10.50
2019-05-21T22:47:17.834Z,10.40
2019-05-21T22:49:47.780Z,10.50
2019-05-21T22:52:17.783Z,10.50
2019-05-21T22:54:47.849Z,10.50
2019-05-21T22:57:17.958Z,10.50
2019-05-21T22:59:47.931Z,10.40
2019-05-21T23:02:23.141Z,10.50
2019-05-21T23:07:22.278Z,10.50
2019-05-21T23:09:53.084Z,10.50
2019-05-21T23:12:24.385Z,10.50
2019-05-21T23:14:54.288Z,10.00
2019-05-21T23:17:25.129Z,10.40
2019-05-21T23:19:55.656Z,10.60
2019-05-21T23:22:26.249Z,10.50
2019-05-21T23:24:56.366Z,10.40
2019-05-21T23:27:26.285Z,10.30
2019-05-21T23:29:56.725Z,10.40
2019-05-21T23:32:26.972Z,10.40
2019-05-21T23:34:57.089Z,10.50
2019-05-21T23:37:28.826Z,9.80
2019-05-21T23:39:58.906Z,10.40
2019-05-21T23:42:30.080Z,10.40
2019-05-21T23:45:00.429Z,10.40
2019-05-21T23:47:30.783Z,10.50
2019-05-21T23:50:02.293Z,10.30
2019-05-21T23:52:32.797Z,10.40
2019-05-21T23:55:02.878Z,10.40
2019-05-21T23:57:34.031Z,10.40
